Terminal Aerodrome Forecast
Issued by NWS

Home | Current Version | Previous Version | Text Only | Print | Product List | Glossary Off
Versions: 1 2 3 4 5 6 7 8 9 10 11 12 13 14

000
FTUS42 KMHX 211736
TAFPGV
TAF
KPGV 211736Z 2118/2218 VRB04KT P6SM BKN040
     FM220000 VRB04KT P6SM VCSH BKN040
     FM220500 VRB03KT 4SM -SHRA BR SCT020 OVC050
     FM221000 VRB04KT P6SM SCT007 BKN020
     FM221300 32006KT P6SM SCT009 BKN050
     FM221500 34009KT P6SM SCT200
      AMD LTD TO CLD VIS AND WIND=

USA.gov is the U.S. government's official web portal to all federal, state and local government web resources and services.